createdAt,value
2018-09-10T00:00:09.107Z,58.37
2018-09-10T00:02:37.901Z,57.82
2018-09-10T00:05:08.434Z,58.29
2018-09-10T00:07:37.239Z,58.52
2018-09-10T00:10:06.192Z,59.21
2018-09-10T00:12:35.030Z,58.77
2018-09-10T00:15:03.966Z,58.31
2018-09-10T00:17:32.735Z,59.58
2018-09-10T00:20:01.550Z,59.60
2018-09-10T00:22:30.324Z,59.19
2018-09-10T00:24:59.081Z,60.42
2018-09-10T00:27:27.931Z,59.46
2018-09-10T00:29:56.660Z,60.80
2018-09-10T00:32:25.495Z,60.00
2018-09-10T00:34:54.292Z,59.77
2018-09-10T00:37:23.039Z,61.21
2018-09-10T00:39:52.263Z,59.89
2018-09-10T00:42:21.059Z,60.68
2018-09-10T00:44:49.878Z,60.52
2018-09-10T00:47:18.656Z,59.87
2018-09-10T00:49:47.424Z,60.71
2018-09-10T00:52:16.236Z,60.67
2018-09-10T00:54:45.116Z,60.21
2018-09-10T00:57:13.948Z,60.05
2018-09-10T00:59:42.732Z,60.95
2018-09-10T01:02:11.543Z,60.06
2018-09-10T01:04:40.314Z,60.14
2018-09-10T01:07:09.101Z,59.85
2018-09-10T01:09:37.914Z,60.77
2018-09-10T01:12:06.717Z,60.43
2018-09-10T01:14:35.505Z,60.97
2018-09-10T01:17:04.303Z,60.06
2018-09-10T01:19:33.110Z,61.00
2018-09-10T01:22:01.938Z,61.43
2018-09-10T01:24:30.750Z,60.55
2018-09-10T01:26:59.529Z,61.06
2018-09-10T01:29:28.371Z,60.87
2018-09-10T01:31:57.158Z,61.40
2018-09-10T01:34:31.310Z,61.91
2018-09-10T01:37:00.112Z,61.48
2018-09-10T01:39:29.332Z,61.45
2018-09-10T01:41:58.113Z,61.38
2018-09-10T01:44:26.916Z,61.92
2018-09-10T01:46:55.720Z,62.09
2018-09-10T01:49:24.526Z,61.52
2018-09-10T01:51:53.298Z,61.92
2018-09-10T01:54:22.116Z,62.57
2018-09-10T01:56:50.890Z,62.43
2018-09-10T01:59:19.743Z,62.57
2018-09-10T02:01:49.432Z,63.02
2018-09-10T02:04:18.291Z,62.92
2018-09-10T02:06:47.120Z,62.76
2018-09-10T02:09:15.976Z,62.91
2018-09-10T02:11:44.754Z,62.66
2018-09-10T02:14:13.548Z,63.66
2018-09-10T02:16:42.355Z,63.15
2018-09-10T02:19:11.173Z,63.46
2018-09-10T02:21:39.999Z,63.25
2018-09-10T02:24:08.740Z,63.31
2018-09-10T02:26:37.508Z,63.30
2018-09-10T02:29:06.525Z,63.67
2018-09-10T02:31:35.597Z,63.63
2018-09-10T02:34:04.423Z,64.42
2018-09-10T02:36:33.243Z,63.84
2018-09-10T02:39:02.187Z,64.80
2018-09-10T02:41:30.994Z,64.73
2018-09-10T02:43:59.791Z,64.31
2018-09-10T02:46:28.592Z,64.62
2018-09-10T02:48:57.538Z,64.82
2018-09-10T02:51:26.406Z,64.51
2018-09-10T02:53:55.174Z,65.33
2018-09-10T02:56:24.013Z,66.40
2018-09-10T02:58:52.872Z,66.63
2018-09-10T03:01:21.702Z,66.49
2018-09-10T03:03:50.535Z,66.21
2018-09-10T03:06:19.370Z,65.87
2018-09-10T03:08:48.506Z,65.14
2018-09-10T03:11:17.340Z,64.51
2018-09-10T03:13:46.131Z,65.39
2018-09-10T03:16:14.950Z,64.50
2018-09-10T03:18:43.743Z,65.07
2018-09-10T03:21:12.524Z,64.78
2018-09-10T03:23:41.399Z,64.99
2018-09-10T03:26:10.192Z,64.75
2018-09-10T03:28:38.965Z,65.14
2018-09-10T03:31:08.359Z,65.54
2018-09-10T03:33:37.218Z,64.70
2018-09-10T03:36:06.208Z,65.74
2018-09-10T03:38:35.071Z,65.87
2018-09-10T03:41:03.863Z,65.12
2018-09-10T03:43:32.636Z,65.97
2018-09-10T03:46:01.496Z,65.20
2018-09-10T03:48:30.300Z,65.69
2018-09-10T03:50:59.191Z,65.99
2018-09-10T03:53:27.961Z,65.82
2018-09-10T03:55:57.000Z,65.78
2018-09-10T03:58:25.816Z,65.24
2018-09-10T04:00:54.615Z,65.66
2018-09-10T04:03:23.445Z,66.02
2018-09-10T04:05:52.210Z,67.26
2018-09-10T04:08:21.051Z,68.10
2018-09-10T04:10:49.826Z,68.56
2018-09-10T04:13:18.915Z,68.83
2018-09-10T04:15:47.888Z,68.72
2018-09-10T04:18:16.647Z,67.74
2018-09-10T04:20:45.418Z,67.63
2018-09-10T04:23:14.307Z,66.27
2018-09-10T04:25:43.181Z,65.18
2018-09-10T04:28:11.989Z,64.43
2018-09-10T04:30:40.816Z,64.26
2018-09-10T04:33:09.805Z,63.29
2018-09-10T04:35:38.576Z,62.66
2018-09-10T04:38:07.351Z,63.09
2018-09-10T04:40:36.111Z,62.57
2018-09-10T04:43:04.916Z,62.69
2018-09-10T04:45:33.711Z,62.30
2018-09-10T04:48:02.494Z,61.88
2018-09-10T04:50:31.276Z,63.35
2018-09-10T04:53:00.052Z,62.50
2018-09-10T04:55:28.870Z,62.08
2018-09-10T04:57:57.717Z,62.75
2018-09-10T05:00:26.883Z,63.81
2018-09-10T05:02:55.696Z,64.94
2018-09-10T05:05:24.522Z,63.09
2018-09-10T05:07:53.320Z,63.31
2018-09-10T05:10:22.079Z,62.68
2018-09-10T05:12:50.844Z,62.57
2018-09-10T05:15:19.681Z,61.87
2018-09-10T05:17:48.519Z,62.04
2018-09-10T05:20:17.302Z,61.33
2018-09-10T05:22:46.077Z,61.66
2018-09-10T05:25:14.892Z,61.79
2018-09-10T05:27:43.884Z,62.16
2018-09-10T05:30:12.775Z,60.83
2018-09-10T05:32:41.574Z,61.30
2018-09-10T05:35:10.363Z,60.95
2018-09-10T05:37:39.151Z,61.40
2018-09-10T05:40:09.378Z,61.12
2018-09-10T05:42:38.176Z,60.62
2018-09-10T05:45:09.376Z,61.06
2018-09-10T05:47:38.224Z,61.27
2018-09-10T05:50:08.003Z,60.87
2018-09-10T05:52:36.936Z,59.90
2018-09-10T05:55:05.841Z,58.62
2018-09-10T05:57:34.732Z,59.31
2018-09-10T06:00:05.439Z,58.40
2018-09-10T06:02:34.218Z,57.80
2018-09-10T06:05:02.993Z,57.37
2018-09-10T06:07:31.716Z,57.35
2018-09-10T06:10:00.486Z,57.13
2018-09-10T06:12:29.313Z,56.07
2018-09-10T06:14:58.102Z,56.30
2018-09-10T06:17:26.981Z,56.25
2018-09-10T06:19:55.788Z,56.23
2018-09-10T06:22:24.603Z,55.22
2018-09-10T06:24:53.362Z,54.00
2018-09-10T06:27:22.207Z,54.75
2018-09-10T06:29:51.015Z,53.87
2018-09-10T06:32:19.831Z,53.25
2018-09-10T06:34:48.662Z,53.47
2018-09-10T06:37:17.498Z,53.89
2018-09-10T06:39:46.475Z,54.62
2018-09-10T06:42:15.449Z,54.10
2018-09-10T06:44:44.234Z,53.64
2018-09-10T06:47:13.026Z,53.15
2018-09-10T06:49:41.812Z,53.30
2018-09-10T06:52:10.662Z,53.95
2018-09-10T06:54:39.479Z,53.72
2018-09-10T06:57:08.353Z,53.79
2018-09-10T06:59:37.145Z,53.00
2018-09-10T07:02:05.912Z,51.79
2018-09-10T07:04:34.781Z,52.68
2018-09-10T07:07:03.672Z,52.50
2018-09-10T07:09:32.942Z,53.26
2018-09-10T07:12:01.796Z,51.68
2018-09-10T07:14:30.656Z,52.25
2018-09-10T07:16:59.488Z,51.35
2018-09-10T07:19:28.279Z,51.13
2018-09-10T07:21:57.055Z,52.10
2018-09-10T07:24:25.821Z,51.56
2018-09-10T07:26:54.618Z,51.72
2018-09-10T07:29:23.402Z,52.50
2018-09-10T07:31:52.282Z,52.27
2018-09-10T07:34:21.076Z,52.19
2018-09-10T07:36:49.905Z,51.95
2018-09-10T07:39:18.718Z,53.03
2018-09-10T07:41:47.547Z,52.61
2018-09-10T07:44:16.397Z,52.77
2018-09-10T07:46:45.370Z,52.27
2018-09-10T07:49:14.634Z,52.69
2018-09-10T07:51:43.433Z,52.67
2018-09-10T07:54:12.334Z,51.97
2018-09-10T07:56:41.127Z,52.65
2018-09-10T07:59:10.356Z,52.29
2018-09-10T08:01:39.147Z,49.41
2018-09-10T08:04:07.913Z,50.84
2018-09-10T08:06:36.681Z,49.91
2018-09-10T08:09:07.805Z,50.17
2018-09-10T08:11:36.868Z,50.19
2018-09-10T08:14:05.739Z,50.85
2018-09-10T08:16:34.813Z,50.41
2018-09-10T08:19:03.905Z,49.83
2018-09-10T08:21:32.712Z,47.43
2018-09-10T08:24:01.589Z,48.36
2018-09-10T08:26:30.588Z,46.95
2018-09-10T08:28:59.404Z,46.19
2018-09-10T08:31:28.183Z,46.09
2018-09-10T08:33:57.233Z,46.06
2018-09-10T08:36:26.046Z,46.19
2018-09-10T08:38:54.910Z,46.31
2018-09-10T08:41:23.747Z,45.54
2018-09-10T08:43:52.600Z,45.68
2018-09-10T08:46:21.485Z,46.40
2018-09-10T08:48:50.285Z,44.39
2018-09-10T08:51:19.124Z,44.77
2018-09-10T08:53:47.970Z,44.50
2018-09-10T08:56:17.070Z,44.21
2018-09-10T08:58:45.800Z,43.35
2018-09-10T09:01:14.622Z,43.49
2018-09-10T09:03:43.537Z,43.30
2018-09-10T09:06:12.415Z,43.77
2018-09-10T09:08:41.401Z,43.27
2018-09-10T09:11:10.459Z,43.85
2018-09-10T09:13:39.300Z,43.40
2018-09-10T09:16:08.125Z,42.12
2018-09-10T09:18:36.941Z,42.37
2018-09-10T09:21:05.758Z,41.14
2018-09-10T09:23:34.734Z,42.15
2018-09-10T09:26:03.679Z,41.84
2018-09-10T09:28:32.491Z,41.32
2018-09-10T09:31:01.308Z,41.97
2018-09-10T09:33:30.102Z,42.06
2018-09-10T09:36:04.270Z,41.61
2018-09-10T09:38:40.043Z,42.49
2018-09-10T09:41:14.160Z,41.54
2018-09-10T09:43:48.096Z,40.88
2018-09-10T09:46:18.723Z,40.38
2018-09-10T09:48:47.522Z,40.40
2018-09-10T09:51:16.664Z,39.12
2018-09-10T09:53:45.570Z,39.76
2018-09-10T09:56:14.476Z,40.00
2018-09-10T09:58:43.284Z,40.75
2018-09-10T10:01:17.199Z,41.73
2018-09-10T10:03:51.146Z,40.55
2018-09-10T10:06:19.948Z,40.70
2018-09-10T10:08:48.719Z,39.39
2018-09-10T10:11:17.570Z,39.97
2018-09-10T10:13:46.522Z,39.68
2018-09-10T10:16:15.300Z,38.65
2018-09-10T10:18:44.427Z,39.06
2018-09-10T10:21:13.240Z,39.57
2018-09-10T10:23:42.104Z,39.11
2018-09-10T10:26:10.915Z,40.19
2018-09-10T10:28:39.691Z,41.15
2018-09-10T10:31:08.436Z,39.72
2018-09-10T10:33:37.224Z,39.26
2018-09-10T10:36:06.062Z,38.82
2018-09-10T10:38:34.862Z,39.02
2018-09-10T10:41:03.596Z,38.76
2018-09-10T10:43:33.247Z,39.39
2018-09-10T10:46:02.128Z,38.35
2018-09-10T10:48:30.981Z,38.26
2018-09-10T10:50:59.907Z,38.91
2018-09-10T10:53:28.732Z,37.94
2018-09-10T10:55:57.615Z,37.74
2018-09-10T10:58:26.445Z,38.01
2018-09-10T11:00:55.267Z,39.81
2018-09-10T11:03:24.162Z,38.98
2018-09-10T11:05:53.010Z,40.41
2018-09-10T11:08:21.845Z,38.62
2018-09-10T11:10:50.648Z,38.54
2018-09-10T11:13:19.420Z,39.49
2018-09-10T11:15:48.250Z,38.69
2018-09-10T11:18:17.201Z,37.68
2018-09-10T11:20:46.093Z,37.44
2018-09-10T11:23:14.871Z,37.72
2018-09-10T11:25:43.727Z,38.30
2018-09-10T11:28:12.688Z,37.15
2018-09-10T11:30:41.457Z,36.70
2018-09-10T11:33:10.253Z,36.12
2018-09-10T11:35:39.085Z,35.89
2018-09-10T11:38:07.969Z,36.63
2018-09-10T11:40:36.772Z,36.98
2018-09-10T11:43:05.538Z,36.32
2018-09-10T11:45:34.594Z,36.54
2018-09-10T11:48:03.489Z,36.39
2018-09-10T11:50:32.329Z,35.87
2018-09-10T11:53:01.125Z,35.66
2018-09-10T11:55:29.953Z,36.13
2018-09-10T11:57:58.791Z,36.63
2018-09-10T12:00:27.640Z,35.53
2018-09-10T12:02:56.426Z,35.64
2018-09-10T12:05:25.187Z,35.51
2018-09-10T12:07:53.978Z,35.30
2018-09-10T12:10:22.785Z,35.47
2018-09-10T12:12:51.574Z,35.13
2018-09-10T12:15:20.368Z,35.72
2018-09-10T12:17:49.142Z,35.04
2018-09-10T12:20:18.063Z,35.02
2018-09-10T12:22:46.841Z,35.22
2018-09-10T12:25:15.679Z,34.83
2018-09-10T12:27:44.533Z,34.07
2018-09-10T12:30:13.336Z,35.21
2018-09-10T12:32:42.188Z,35.46
2018-09-10T12:35:11.023Z,34.48
2018-09-10T12:37:39.790Z,33.29
2018-09-10T12:40:08.592Z,33.05
2018-09-10T12:42:37.364Z,33.11
2018-09-10T12:45:06.959Z,33.73
2018-09-10T12:47:35.853Z,32.94
2018-09-10T12:50:05.155Z,32.54
2018-09-10T12:52:33.949Z,33.36
2018-09-10T12:55:02.772Z,33.16
2018-09-10T12:57:31.539Z,33.69
2018-09-10T13:00:00.350Z,32.81
2018-09-10T13:02:29.832Z,33.08
2018-09-10T13:04:58.635Z,34.16
2018-09-10T13:07:27.407Z,33.42
2018-09-10T13:09:56.283Z,32.21
2018-09-10T13:12:25.105Z,33.72
2018-09-10T13:14:53.990Z,33.27
2018-09-10T13:17:22.847Z,34.09
2018-09-10T13:19:51.602Z,35.29
2018-09-10T13:22:20.378Z,36.16
2018-09-10T13:24:49.341Z,36.13
2018-09-10T13:27:18.127Z,35.34
2018-09-10T13:29:46.965Z,35.92
2018-09-10T13:32:15.967Z,36.39
2018-09-10T13:34:44.751Z,36.64
2018-09-10T13:37:13.539Z,35.32
2018-09-10T13:39:42.377Z,36.23
2018-09-10T13:42:11.165Z,35.71
2018-09-10T13:44:40.640Z,36.73
2018-09-10T13:47:09.572Z,35.66
2018-09-10T13:49:38.394Z,35.74
2018-09-10T13:52:07.214Z,35.27
2018-09-10T13:54:36.105Z,35.23
2018-09-10T13:57:04.912Z,35.65
2018-09-10T13:59:33.729Z,36.26
2018-09-10T14:02:02.617Z,35.96
2018-09-10T14:04:31.418Z,35.57
2018-09-10T14:07:00.276Z,35.94
2018-09-10T14:09:29.048Z,36.05
2018-09-10T14:11:57.933Z,36.00
2018-09-10T14:14:26.767Z,34.96
2018-09-10T14:16:55.696Z,36.24
2018-09-10T14:19:24.633Z,36.41
2018-09-10T14:21:53.465Z,36.18
2018-09-10T14:24:22.276Z,35.16
2018-09-10T14:26:51.103Z,35.53
2018-09-10T14:29:19.891Z,35.07
2018-09-10T14:31:48.794Z,35.24
2018-09-10T14:34:17.630Z,35.87
2018-09-10T14:36:46.818Z,35.21
2018-09-10T14:39:15.610Z,35.98
2018-09-10T14:41:44.486Z,36.21
2018-09-10T14:44:13.381Z,35.96
2018-09-10T14:46:42.213Z,36.17
2018-09-10T14:49:11.054Z,36.43
2018-09-10T14:51:39.940Z,35.74
2018-09-10T14:54:08.790Z,36.60
2018-09-10T14:56:37.614Z,36.05
2018-09-10T14:59:06.503Z,36.91
2018-09-10T15:01:35.255Z,36.51
2018-09-10T15:04:04.081Z,36.50
2018-09-10T15:06:32.866Z,36.66
2018-09-10T15:09:01.661Z,36.29
2018-09-10T15:11:30.454Z,36.39
2018-09-10T15:13:59.324Z,36.65
2018-09-10T15:16:28.087Z,37.36
2018-09-10T15:18:57.033Z,36.47
2018-09-10T15:21:25.979Z,36.57
2018-09-10T15:23:54.778Z,37.00
2018-09-10T15:26:24.240Z,37.00
2018-09-10T15:28:53.017Z,36.40
2018-09-10T15:31:21.823Z,36.62
2018-09-10T15:33:50.690Z,36.14
2018-09-10T15:36:19.523Z,37.24
2018-09-10T15:38:48.291Z,36.45
2018-09-10T15:41:17.206Z,37.05
2018-09-10T15:43:46.088Z,36.63
2018-09-10T15:46:14.903Z,37.67
2018-09-10T15:48:43.646Z,37.08
2018-09-10T15:51:12.461Z,37.34
2018-09-10T15:53:41.454Z,38.21
2018-09-10T15:56:10.382Z,38.26
2018-09-10T15:58:39.170Z,38.08
2018-09-10T16:01:07.981Z,38.53
2018-09-10T16:03:36.843Z,38.11
2018-09-10T16:06:05.644Z,38.21
2018-09-10T16:08:34.486Z,38.23
2018-09-10T16:11:03.247Z,38.19
2018-09-10T16:13:31.995Z,39.47
2018-09-10T16:16:00.833Z,39.04
2018-09-10T16:18:29.679Z,39.20
2018-09-10T16:20:58.426Z,39.45
2018-09-10T16:23:27.323Z,40.07
2018-09-10T16:25:56.314Z,39.37
2018-09-10T16:28:25.156Z,39.62
2018-09-10T16:30:54.037Z,40.27
2018-09-10T16:33:23.030Z,39.67
2018-09-10T16:35:51.916Z,39.85
2018-09-10T16:38:20.822Z,39.97
2018-09-10T16:40:49.560Z,40.72
2018-09-10T16:43:18.442Z,40.68
2018-09-10T16:45:47.199Z,41.20
2018-09-10T16:48:16.020Z,40.17
2018-09-10T16:50:45.008Z,40.34
2018-09-10T16:53:13.802Z,40.59
2018-09-10T16:55:42.615Z,41.66
2018-09-10T16:58:11.412Z,41.78
2018-09-10T17:00:40.307Z,42.04
2018-09-10T17:03:09.279Z,41.79
2018-09-10T17:05:38.094Z,41.65
2018-09-10T17:08:07.228Z,42.13
2018-09-10T17:10:35.997Z,42.74
2018-09-10T17:13:04.911Z,42.81
2018-09-10T17:15:33.752Z,41.98
2018-09-10T17:18:02.595Z,42.42
2018-09-10T17:20:31.369Z,43.45
2018-09-10T17:23:00.394Z,43.17
2018-09-10T17:25:29.222Z,43.36
2018-09-10T17:27:58.035Z,43.52
2018-09-10T17:30:26.918Z,42.88
2018-09-10T17:32:55.948Z,43.09
2018-09-10T17:35:24.763Z,43.96
2018-09-10T17:37:53.658Z,43.28
2018-09-10T17:40:22.443Z,44.16
2018-09-10T17:42:51.472Z,43.22
2018-09-10T17:45:20.271Z,43.26
2018-09-10T17:47:49.154Z,43.70
2018-09-10T17:50:17.946Z,43.57
2018-09-10T17:52:46.935Z,43.81
2018-09-10T17:55:15.759Z,44.75
2018-09-10T17:57:44.561Z,43.86
2018-09-10T18:00:15.902Z,45.25
2018-09-10T18:02:44.696Z,44.55
2018-09-10T18:05:13.475Z,44.15
2018-09-10T18:07:42.358Z,45.10
2018-09-10T18:10:11.452Z,45.28
2018-09-10T18:12:40.263Z,45.14
2018-09-10T18:15:09.452Z,44.81
2018-09-10T18:17:38.279Z,45.71
2018-09-10T18:20:07.494Z,44.99
2018-09-10T18:22:36.606Z,45.18
2018-09-10T18:25:05.902Z,44.96
2018-09-10T18:27:34.663Z,45.40
2018-09-10T18:30:07.363Z,45.83
2018-09-10T18:32:36.498Z,45.38
2018-09-10T18:35:05.318Z,46.23
2018-09-10T18:37:34.123Z,45.61
2018-09-10T18:40:03.016Z,46.14
2018-09-10T18:42:32.045Z,46.44
2018-09-10T18:45:00.835Z,46.17
2018-09-10T18:47:30.335Z,46.03
2018-09-10T18:50:00.008Z,47.17
2018-09-10T18:52:28.819Z,47.53
2018-09-10T18:54:57.622Z,47.06
2018-09-10T18:57:26.445Z,47.85
2018-09-10T18:59:55.254Z,47.10
2018-09-10T19:02:24.086Z,47.93
2018-09-10T19:04:52.870Z,48.40
2018-09-10T19:07:21.650Z,48.13
2018-09-10T19:09:50.508Z,48.02
2018-09-10T19:12:20.787Z,48.16
2018-09-10T19:14:49.772Z,47.95
2018-09-10T19:17:18.571Z,47.83
2018-09-10T19:19:47.476Z,48.49
2018-09-10T19:22:17.350Z,48.74
2018-09-10T19:24:46.214Z,49.53
2018-09-10T19:27:15.059Z,48.79
2018-09-10T19:29:43.921Z,50.53
2018-09-10T19:32:12.754Z,49.97
2018-09-10T19:34:42.030Z,50.59
2018-09-10T19:37:10.848Z,51.17
2018-09-10T19:39:40.120Z,51.41
2018-09-10T19:42:09.193Z,50.83
2018-09-10T19:44:37.973Z,51.31
2018-09-10T19:47:07.227Z,50.84
2018-09-10T19:49:36.051Z,50.51
2018-09-10T19:52:05.296Z,51.55
2018-09-10T19:54:34.087Z,51.28
2018-09-10T19:57:02.942Z,50.66
2018-09-10T19:59:33.451Z,50.99
2018-09-10T20:02:02.762Z,50.75
2018-09-10T20:04:31.536Z,51.63
2018-09-10T20:07:00.470Z,51.35
2018-09-10T20:09:29.374Z,51.72
2018-09-10T20:11:58.182Z,51.58
2018-09-10T20:14:26.986Z,51.48
2018-09-10T20:16:55.893Z,51.14
2018-09-10T20:19:24.910Z,52.25
2018-09-10T20:21:53.753Z,51.51
2018-09-10T20:24:22.749Z,51.90
2018-09-10T20:26:51.554Z,51.24
2018-09-10T20:29:20.415Z,52.19
2018-09-10T20:31:49.264Z,51.90
2018-09-10T20:34:18.092Z,51.51
2018-09-10T20:36:46.936Z,51.71
2018-09-10T20:39:15.784Z,52.88
2018-09-10T20:41:44.570Z,52.62
2018-09-10T20:44:13.352Z,52.97
2018-09-10T20:46:42.110Z,52.72
2018-09-10T20:49:10.897Z,53.27
2018-09-10T20:51:39.709Z,53.23
2018-09-10T20:54:08.506Z,52.92
2018-09-10T20:56:37.288Z,53.63
2018-09-10T20:59:06.109Z,54.21
2018-09-10T21:01:35.255Z,53.14
2018-09-10T21:04:04.078Z,53.74
2018-09-10T21:06:33.038Z,53.53
2018-09-10T21:09:01.815Z,53.25
2018-09-10T21:11:30.602Z,53.29
2018-09-10T21:13:59.401Z,54.33
2018-09-10T21:16:28.211Z,53.93
2018-09-10T21:18:56.962Z,54.36
2018-09-10T21:21:25.756Z,53.37
2018-09-10T21:23:54.585Z,54.71
2018-09-10T21:26:23.453Z,54.60
2018-09-10T21:28:52.362Z,54.52
2018-09-10T21:31:21.280Z,55.80
2018-09-10T21:33:50.127Z,55.91
2018-09-10T21:36:19.084Z,56.03
2018-09-10T21:38:47.872Z,55.53
2018-09-10T21:41:16.682Z,55.74
2018-09-10T21:43:45.466Z,54.75
2018-09-10T21:46:14.344Z,55.49
2018-09-10T21:48:43.384Z,55.44
2018-09-10T21:51:12.210Z,55.38
2018-09-10T21:53:41.323Z,56.71
2018-09-10T21:56:10.317Z,56.18
2018-09-10T21:58:41.737Z,55.88
2018-09-10T22:01:12.147Z,56.27
2018-09-10T22:03:41.810Z,56.02
2018-09-10T22:06:11.381Z,56.53
2018-09-10T22:08:40.383Z,56.05
2018-09-10T22:11:09.453Z,55.58
2018-09-10T22:13:38.356Z,56.06
2018-09-10T22:16:07.655Z,55.90
2018-09-10T22:18:36.530Z,55.82
2018-09-10T22:21:05.485Z,55.84
2018-09-10T22:23:34.353Z,55.07
2018-09-10T22:26:03.132Z,55.51
2018-09-10T22:28:31.983Z,55.11
2018-09-10T22:31:00.946Z,55.48
2018-09-10T22:33:29.824Z,54.25
2018-09-10T22:35:58.753Z,54.39
2018-09-10T22:38:27.554Z,55.46
2018-09-10T22:40:56.344Z,55.51
2018-09-10T22:43:25.267Z,54.86
2018-09-10T22:45:54.174Z,56.53
2018-09-10T22:48:23.007Z,56.25
2018-09-10T22:50:51.922Z,55.15
2018-09-10T22:53:20.791Z,55.46
2018-09-10T22:55:49.565Z,57.00
2018-09-10T22:58:18.337Z,56.68
2018-09-10T23:00:47.489Z,56.89
2018-09-10T23:03:16.377Z,56.43
2018-09-10T23:05:45.216Z,54.96
2018-09-10T23:08:13.977Z,55.93
2018-09-10T23:10:42.819Z,55.49
2018-09-10T23:13:11.691Z,56.23
2018-09-10T23:15:40.542Z,55.84
2018-09-10T23:18:09.420Z,57.26
2018-09-10T23:20:38.341Z,56.92
2018-09-10T23:23:07.306Z,56.56
2018-09-10T23:25:36.224Z,55.49
2018-09-10T23:28:05.093Z,55.31
2018-09-10T23:30:34.029Z,55.78
2018-09-10T23:33:02.875Z,54.99
2018-09-10T23:35:31.649Z,55.30
2018-09-10T23:38:00.419Z,55.20
2018-09-10T23:40:29.235Z,55.40
2018-09-10T23:42:58.118Z,55.50
2018-09-10T23:45:26.995Z,55.33
2018-09-10T23:47:55.884Z,55.91
2018-09-10T23:50:24.699Z,55.18
2018-09-10T23:52:53.562Z,56.42
2018-09-10T23:55:22.686Z,55.49
2018-09-10T23:57:51.523Z,56.07
